Time;durP1;ratioP1;P1;durP2;ratioP2;P2;SDS_P1;SDS_P2;PMS_P1;PMS_P2;Temp;Humidity;BMP_temperature;BMP_pressure;BME280_temperature;BME280_humidity;BME280_pressure;Samples;Min_cycle;Max_cycle;Signal;HPM_P1;HPM_P2
2023/03/06 00:00:08;;;;;;;11.05;3.00;;;;;;;;;;6312777;22;20026;-83
2023/03/06 00:02:35;;;;;;;6.75;2.92;;;;;;;;;;6287495;22;20016;-81
2023/03/06 00:05:01;;;;;;;7.28;2.95;;;;;;;;;;6310175;22;20098;-82
2023/03/06 00:07:28;;;;;;;5.55;2.90;;;;;;;;;;6314014;22;20038;-83
2023/03/06 00:09:55;;;;;;;7.63;3.25;;;;;;;;;;6311821;22;20018;-81
2023/03/06 00:12:21;;;;;;;6.50;3.35;;;;;;;;;;6312543;22;20024;-81
2023/03/06 00:14:47;;;;;;;8.88;3.17;;;;;;;;;;6310975;22;20024;-83
2023/03/06 00:17:14;;;;;;;7.85;2.97;;;;;;;;;;6311329;22;20030;-83
2023/03/06 00:19:40;;;;;;;7.03;3.30;;;;;;;;;;6310881;22;20020;-81
2023/03/06 00:22:08;;;;;;;8.07;3.40;;;;;;;;;;6287122;22;20966;-84
2023/03/06 00:24:35;;;;;;;11.65;3.40;;;;;;;;;;6313368;22;20026;-83
2023/03/06 00:27:01;;;;;;;7.30;3.50;;;;;;;;;;6315883;22;20071;-83
2023/03/06 00:29:27;;;;;;;7.40;3.42;;;;;;;;;;6312755;22;20050;-80
2023/03/06 00:31:54;;;;;;;6.38;3.40;;;;;;;;;;6312024;22;20016;-84
2023/03/06 00:34:20;;;;;;;10.02;3.65;;;;;;;;;;6285827;22;20736;-84
2023/03/06 00:36:47;;;;;;;7.35;3.50;;;;;;;;;;6313016;22;20080;-82
2023/03/06 00:39:13;;;;;;;7.82;3.65;;;;;;;;;;6312344;22;20968;-81
2023/03/06 00:41:40;;;;;;;8.20;3.90;;;;;;;;;;6313773;22;20059;-84
2023/03/06 00:44:06;;;;;;;8.82;3.95;;;;;;;;;;6312915;22;20091;-85
2023/03/06 00:46:32;;;;;;;9.68;3.78;;;;;;;;;;6286848;22;20066;-84
2023/03/06 00:48:59;;;;;;;9.32;3.97;;;;;;;;;;6313479;22;20349;-83
2023/03/06 00:51:25;;;;;;;8.40;4.00;;;;;;;;;;6312562;22;20023;-80
2023/03/06 00:53:51;;;;;;;7.60;3.97;;;;;;;;;;6309748;22;20016;-82
2023/03/06 00:56:18;;;;;;;7.72;4.38;;;;;;;;;;6312280;22;20022;-81
2023/03/06 00:58:45;;;;;;;11.45;5.20;;;;;;;;;;6286571;22;20078;-83
2023/03/06 01:01:11;;;;;;;7.70;4.75;;;;;;;;;;6312316;22;20019;-83
2023/03/06 01:03:38;;;;;;;12.02;5.68;;;;;;;;;;6312087;22;20034;-82
2023/03/06 01:06:04;;;;;;;11.75;6.60;;;;;;;;;;6313341;22;20020;-83
2023/03/06 01:08:30;;;;;;;13.02;6.63;;;;;;;;;;6285867;22;20024;-80
2023/03/06 01:10:57;;;;;;;13.30;7.35;;;;;;;;;;6313961;22;21054;-83
2023/03/06 01:13:23;;;;;;;12.30;7.28;;;;;;;;;;6311542;22;20056;-83
2023/03/06 01:15:50;;;;;;;11.93;7.35;;;;;;;;;;6311763;22;20027;-84
2023/03/06 01:18:16;;;;;;;12.15;7.38;;;;;;;;;;6312384;22;20023;-85
2023/03/06 01:20:43;;;;;;;12.25;7.15;;;;;;;;;;6312210;22;20034;-81
2023/03/06 01:23:09;;;;;;;17.10;7.70;;;;;;;;;;6285043;22;20098;-81
2023/03/06 01:25:36;;;;;;;15.82;8.27;;;;;;;;;;6314253;22;20024;-82
2023/03/06 01:28:02;;;;;;;16.65;7.35;;;;;;;;;;6286305;22;20032;-84
2023/03/06 01:30:29;;;;;;;15.43;8.13;;;;;;;;;;6286580;22;20080;-84
2023/03/06 01:32:55;;;;;;;12.20;7.65;;;;;;;;;;6314303;22;20038;-84
2023/03/06 01:35:21;;;;;;;15.52;8.00;;;;;;;;;;6314000;22;20012;-83
2023/03/06 01:37:48;;;;;;;16.55;8.07;;;;;;;;;;6314028;22;20019;-83
2023/03/06 01:40:14;;;;;;;11.85;7.50;;;;;;;;;;6313548;22;20315;-84
2023/03/06 01:42:40;;;;;;;14.52;8.35;;;;;;;;;;6284829;22;20027;-81
2023/03/06 01:45:27;;;;;;;15.60;8.27;;;;;;;;;;6313524;22;20101;-83
2023/03/06 01:47:53;;;;;;;13.30;7.82;;;;;;;;;;6315525;22;20087;-84
2023/03/06 01:50:20;;;;;;;13.45;7.35;;;;;;;;;;6314805;22;20015;-83
2023/03/06 01:52:50;;;;;;;13.23;7.80;;;;;;;;;;6312254;22;20120;-81
2023/03/06 01:55:19;;;;;;;16.33;7.78;;;;;;;;;;6311906;22;20023;-81
2023/03/06 01:57:49;;;;;;;13.77;7.88;;;;;;;;;;6313546;22;20015;-84
2023/03/06 02:00:17;;;;;;;12.63;7.63;;;;;;;;;;6286322;22;20044;-85
2023/03/06 02:02:45;;;;;;;13.73;8.20;;;;;;;;;;6311660;22;21018;-81
2023/03/06 02:05:12;;;;;;;14.93;8.20;;;;;;;;;;6312496;22;20509;-81
2023/03/06 02:07:40;;;;;;;13.68;8.43;;;;;;;;;;6312278;22;20011;-84
2023/03/06 02:10:07;;;;;;;16.50;8.60;;;;;;;;;;6312280;22;20024;-83
2023/03/06 02:12:33;;;;;;;15.82;8.40;;;;;;;;;;6314180;22;20039;-82
2023/03/06 02:15:00;;;;;;;15.60;8.68;;;;;;;;;;6311443;22;20020;-84
2023/03/06 02:17:26;;;;;;;18.23;8.98;;;;;;;;;;6312173;22;20043;-82
2023/03/06 02:20:09;;;;;;;17.25;8.82;;;;;;;;;;6285497;22;20116;-83
2023/03/06 02:22:38;;;;;;;17.15;9.45;;;;;;;;;;6312983;22;20016;-83
2023/03/06 02:25:13;;;;;;;16.67;8.75;;;;;;;;;;6311734;22;20019;-82
2023/03/06 02:27:39;;;;;;;18.35;8.77;;;;;;;;;;6312613;22;20073;-83
2023/03/06 02:30:06;;;;;;;17.48;9.68;;;;;;;;;;6314064;22;20020;-84
2023/03/06 02:32:33;;;;;;;19.70;9.65;;;;;;;;;;6316061;22;20105;-84
2023/03/06 02:34:59;;;;;;;18.17;9.63;;;;;;;;;;6314153;22;20032;-82
2023/03/06 02:37:27;;;;;;;19.00;10.35;;;;;;;;;;6312808;22;20117;-85
2023/03/06 02:39:57;;;;;;;19.58;10.40;;;;;;;;;;6314348;22;20054;-83
2023/03/06 02:42:27;;;;;;;20.80;10.70;;;;;;;;;;6314249;22;21261;-83
2023/03/06 02:44:55;;;;;;;17.98;9.63;;;;;;;;;;6285741;22;20245;-81
2023/03/06 02:47:21;;;;;;;20.73;10.85;;;;;;;;;;6313182;22;20072;-81
2023/03/06 02:49:47;;;;;;;21.85;10.43;;;;;;;;;;6313103;22;20034;-81
2023/03/06 02:52:14;;;;;;;21.13;10.90;;;;;;;;;;6314052;22;20019;-81
2023/03/06 02:54:41;;;;;;;21.35;10.55;;;;;;;;;;6286939;22;20031;-80
2023/03/06 02:57:07;;;;;;;20.95;10.55;;;;;;;;;;6312160;22;20069;-83
2023/03/06 02:59:34;;;;;;;17.77;9.82;;;;;;;;;;6292318;22;20008;-85
2023/03/06 03:02:00;;;;;;;19.63;9.60;;;;;;;;;;6328998;22;20031;-85
2023/03/06 03:04:27;;;;;;;20.77;10.23;;;;;;;;;;6328440;22;20015;-85
2023/03/06 03:06:54;;;;;;;20.58;10.50;;;;;;;;;;6328604;22;20024;-85
2023/03/06 03:09:20;;;;;;;21.00;10.95;;;;;;;;;;6327671;22;20011;-85
2023/03/06 03:11:46;;;;;;;21.48;11.00;;;;;;;;;;6326169;22;20024;-85
2023/03/06 03:14:15;;;;;;;24.30;11.30;;;;;;;;;;6328740;22;19996;-86
2023/03/06 03:16:41;;;;;;;21.02;10.45;;;;;;;;;;6329011;22;20092;-86
2023/03/06 03:19:07;;;;;;;22.02;11.13;;;;;;;;;;6328556;22;20000;-85
2023/03/06 03:21:34;;;;;;;22.60;10.90;;;;;;;;;;6330083;22;20092;-86
2023/03/06 03:24:00;;;;;;;21.83;11.43;;;;;;;;;;6327254;22;20050;-84
2023/03/06 03:26:27;;;;;;;21.58;10.63;;;;;;;;;;6324595;22;20008;-84
2023/03/06 03:28:53;;;;;;;23.83;10.82;;;;;;;;;;6322238;22;20016;-85
2023/03/06 03:31:19;;;;;;;25.05;11.05;;;;;;;;;;6321300;22;20779;-85
2023/03/06 03:33:46;;;;;;;24.30;10.98;;;;;;;;;;6319313;22;20043;-83
2023/03/06 03:36:12;;;;;;;21.55;10.65;;;;;;;;;;6320716;22;20044;-84
2023/03/06 03:38:39;;;;;;;21.15;10.35;;;;;;;;;;6319516;22;20012;-82
2023/03/06 03:41:05;;;;;;;20.90;10.50;;;;;;;;;;6318118;22;20023;-85
2023/03/06 03:43:31;;;;;;;19.20;9.55;;;;;;;;;;6317799;22;20101;-84
2023/03/06 03:45:58;;;;;;;18.90;9.48;;;;;;;;;;6317867;22;20031;-85
2023/03/06 03:48:24;;;;;;;19.85;10.05;;;;;;;;;;6316042;22;20894;-83
2023/03/06 03:50:50;;;;;;;19.95;9.57;;;;;;;;;;6290749;22;20015;-83
2023/03/06 03:53:17;;;;;;;18.88;8.98;;;;;;;;;;6316645;22;20035;-83
2023/03/06 03:55:45;;;;;;;19.20;9.70;;;;;;;;;;6317844;22;20031;-82
2023/03/06 03:58:11;;;;;;;19.73;9.60;;;;;;;;;;6316822;22;20076;-85
2023/03/06 04:00:38;;;;;;;20.13;9.68;;;;;;;;;;6318079;22;21330;-82
2023/03/06 04:03:04;;;;;;;20.17;9.68;;;;;;;;;;6316550;22;20555;-84
2023/03/06 04:05:32;;;;;;;19.42;9.55;;;;;;;;;;6317785;22;20011;-84
2023/03/06 04:08:01;;;;;;;17.35;9.48;;;;;;;;;;6317559;22;20105;-85
2023/03/06 04:10:28;;;;;;;18.50;9.35;;;;;;;;;;6289419;22;20094;-82
2023/03/06 04:12:54;;;;;;;16.42;9.05;;;;;;;;;;6317065;22;20012;-84
2023/03/06 04:15:21;;;;;;;21.05;10.10;;;;;;;;;;6290993;22;20024;-82
2023/03/06 04:17:47;;;;;;;21.70;9.80;;;;;;;;;;6318019;22;20028;-84
2023/03/06 04:20:14;;;;;;;20.42;10.13;;;;;;;;;;6317584;22;20074;-84
2023/03/06 04:22:40;;;;;;;18.83;9.18;;;;;;;;;;6316533;22;20028;-85
2023/03/06 04:25:06;;;;;;;20.55;10.98;;;;;;;;;;6317946;22;20011;-83
2023/03/06 04:27:33;;;;;;;20.00;9.52;;;;;;;;;;6316876;22;20022;-84
2023/03/06 04:30:00;;;;;;;19.63;10.15;;;;;;;;;;6317609;22;20038;-84
2023/03/06 04:32:26;;;;;;;20.02;9.82;;;;;;;;;;6315775;22;20020;-84
2023/03/06 04:34:52;;;;;;;20.30;10.13;;;;;;;;;;6289148;22;20019;-83
2023/03/06 04:37:20;;;;;;;20.98;9.90;;;;;;;;;;6316801;22;20075;-83
2023/03/06 04:39:46;;;;;;;20.67;10.55;;;;;;;;;;6317168;22;20043;-82
2023/03/06 04:42:13;;;;;;;20.55;10.10;;;;;;;;;;6317234;22;20123;-85
2023/03/06 04:44:39;;;;;;;20.83;10.48;;;;;;;;;;6287006;22;20023;-85
2023/03/06 04:47:05;;;;;;;24.75;10.48;;;;;;;;;;6317182;22;20031;-83
2023/03/06 04:49:32;;;;;;;21.92;10.88;;;;;;;;;;6317602;22;20019;-81
2023/03/06 04:51:59;;;;;;;21.00;10.57;;;;;;;;;;6317413;22;20031;-82
2023/03/06 04:54:25;;;;;;;25.25;11.32;;;;;;;;;;6313539;22;20039;-85
2023/03/06 04:56:52;;;;;;;24.08;11.02;;;;;;;;;;6287700;22;20031;-83
2023/03/06 04:59:18;;;;;;;21.45;10.48;;;;;;;;;;6316393;22;20022;-85
2023/03/06 05:01:44;;;;;;;20.60;10.60;;;;;;;;;;6290803;22;20016;-83
2023/03/06 05:04:11;;;;;;;21.48;10.23;;;;;;;;;;6318149;22;20020;-84
2023/03/06 05:06:37;;;;;;;23.77;11.27;;;;;;;;;;6317730;22;20022;-86
2023/03/06 05:09:03;;;;;;;19.38;9.95;;;;;;;;;;6318193;22;20535;-84
2023/03/06 05:11:30;;;;;;;23.85;10.48;;;;;;;;;;6320506;22;20031;-82
2023/03/06 05:13:59;;;;;;;23.00;10.63;;;;;;;;;;6317474;22;20107;-84
2023/03/06 05:16:25;;;;;;;21.67;10.55;;;;;;;;;;6320049;22;20058;-86
2023/03/06 05:18:52;;;;;;;20.25;9.23;;;;;;;;;;6317459;22;20082;-83
2023/03/06 05:21:18;;;;;;;19.73;9.23;;;;;;;;;;6317913;22;20073;-86
2023/03/06 05:23:45;;;;;;;21.35;9.20;;;;;;;;;;6316096;22;20147;-84
2023/03/06 05:26:12;;;;;;;18.20;9.35;;;;;;;;;;6317716;22;20020;-86
2023/03/06 05:28:38;;;;;;;17.55;9.23;;;;;;;;;;6318492;22;20023;-84
2023/03/06 05:31:05;;;;;;;23.92;8.90;;;;;;;;;;6292189;22;20023;-82
2023/03/06 05:33:33;;;;;;;18.77;9.75;;;;;;;;;;6318355;22;20031;-83
2023/03/06 05:35:59;;;;;;;20.35;9.73;;;;;;;;;;6288811;22;20111;-83
2023/03/06 05:38:26;;;;;;;20.15;9.38;;;;;;;;;;6318485;22;20028;-84
2023/03/06 05:40:52;;;;;;;18.48;8.73;;;;;;;;;;6316943;22;20020;-82
2023/03/06 05:43:19;;;;;;;17.70;8.98;;;;;;;;;;6318657;22;20098;-83
2023/03/06 05:45:45;;;;;;;18.88;8.50;;;;;;;;;;6289947;22;20070;-84
2023/03/06 05:48:12;;;;;;;18.77;8.38;;;;;;;;;;6289126;22;20023;-85
2023/03/06 05:50:39;;;;;;;15.80;7.93;;;;;;;;;;6290542;22;20034;-85
2023/03/06 05:53:05;;;;;;;16.20;7.32;;;;;;;;;;6288983;22;20019;-85
2023/03/06 05:55:31;;;;;;;15.90;6.72;;;;;;;;;;6317495;22;20020;-85
2023/03/06 05:57:58;;;;;;;14.18;6.47;;;;;;;;;;6284521;22;20028;-80
2023/03/06 06:00:24;;;;;;;14.50;6.68;;;;;;;;;;6312395;22;20111;-81
2023/03/06 06:02:51;;;;;;;14.45;6.35;;;;;;;;;;6285559;22;20079;-83
2023/03/06 06:05:17;;;;;;;12.77;6.35;;;;;;;;;;6286461;22;20086;-85
2023/03/06 06:07:43;;;;;;;11.80;6.07;;;;;;;;;;6312688;22;20012;-84
2023/03/06 06:10:10;;;;;;;14.75;6.70;;;;;;;;;;6312141;22;20562;-82
2023/03/06 06:12:36;;;;;;;11.98;6.07;;;;;;;;;;6311564;22;20871;-82
2023/03/06 06:15:03;;;;;;;17.20;6.20;;;;;;;;;;6309510;22;20030;-83
2023/03/06 06:17:30;;;;;;;13.85;5.72;;;;;;;;;;6283873;22;20058;-82
2023/03/06 06:19:56;;;;;;;13.15;5.90;;;;;;;;;;6310921;22;20577;-85
2023/03/06 06:22:23;;;;;;;15.60;7.10;;;;;;;;;;6313884;22;20504;-84
2023/03/06 06:24:49;;;;;;;11.73;6.28;;;;;;;;;;6283210;22;20016;-82
2023/03/06 06:27:16;;;;;;;16.05;7.20;;;;;;;;;;6285735;22;20016;-82
2023/03/06 06:29:42;;;;;;;15.45;7.55;;;;;;;;;;6286787;22;20031;-83
2023/03/06 06:32:08;;;;;;;16.30;6.90;;;;;;;;;;6312048;22;20026;-84
2023/03/06 06:34:35;;;;;;;15.93;7.00;;;;;;;;;;6312239;22;20027;-86
2023/03/06 06:37:01;;;;;;;15.38;7.05;;;;;;;;;;6312434;22;20077;-83
2023/03/06 06:39:28;;;;;;;13.27;6.65;;;;;;;;;;6314027;22;20024;-84
2023/03/06 06:41:54;;;;;;;15.55;7.50;;;;;;;;;;6313872;22;20018;-81
2023/03/06 06:44:41;;;;;;;14.55;7.18;;;;;;;;;;6306923;22;20008;-82
2023/03/06 06:47:07;;;;;;;14.10;6.13;;;;;;;;;;6310624;22;20030;-84
2023/03/06 06:49:51;;;;;;;13.80;5.50;;;;;;;;;;6309774;22;20102;-81
2023/03/06 06:52:17;;;;;;;10.73;4.70;;;;;;;;;;6309469;22;20661;-86
2023/03/06 06:54:44;;;;;;;10.50;4.28;;;;;;;;;;6282077;22;20063;-84
2023/03/06 06:57:11;;;;;;;9.85;4.22;;;;;;;;;;6312409;22;20028;-85
2023/03/06 06:59:37;;;;;;;10.23;4.68;;;;;;;;;;6282435;22;20027;-85
2023/03/06 07:02:04;;;;;;;8.00;3.97;;;;;;;;;;6310396;22;20035;-84
2023/03/06 07:04:31;;;;;;;10.88;3.65;;;;;;;;;;6282207;22;20032;-83
2023/03/06 07:06:57;;;;;;;10.30;3.72;;;;;;;;;;6310486;22;20498;-81
2023/03/06 07:09:23;;;;;;;10.32;3.55;;;;;;;;;;6307308;22;20024;-83
2023/03/06 07:11:50;;;;;;;8.25;3.28;;;;;;;;;;6281607;22;20024;-81
2023/03/06 07:14:16;;;;;;;5.95;2.80;;;;;;;;;;6311861;22;20020;-80
2023/03/06 07:16:43;;;;;;;6.57;2.65;;;;;;;;;;6310575;22;20027;-84
2023/03/06 07:19:09;;;;;;;7.60;2.47;;;;;;;;;;6312966;22;20016;-83
2023/03/06 07:21:35;;;;;;;5.80;2.20;;;;;;;;;;6309375;22;20027;-83
2023/03/06 07:24:02;;;;;;;4.93;2.03;;;;;;;;;;6307458;22;20023;-83
2023/03/06 07:26:29;;;;;;;6.43;1.92;;;;;;;;;;6311313;22;20020;-83
2023/03/06 07:28:59;;;;;;;4.47;1.52;;;;;;;;;;6311383;22;20028;-85
2023/03/06 07:31:26;;;;;;;4.25;1.50;;;;;;;;;;6311395;22;20050;-80
2023/03/06 07:33:53;;;;;;;5.50;1.83;;;;;;;;;;6310089;22;20035;-81
2023/03/06 07:36:20;;;;;;;4.40;1.83;;;;;;;;;;6312991;22;20012;-80
2023/03/06 07:38:46;;;;;;;5.18;1.80;;;;;;;;;;6311873;22;20019;-82
2023/03/06 07:41:15;;;;;;;3.92;1.60;;;;;;;;;;6312657;22;20028;-83
2023/03/06 07:43:42;;;;;;;3.60;1.52;;;;;;;;;;6312009;22;20023;-82
2023/03/06 07:46:09;;;;;;;4.40;1.58;;;;;;;;;;6312895;22;20028;-82
2023/03/06 07:48:36;;;;;;;4.57;1.63;;;;;;;;;;6284118;22;20050;-83
2023/03/06 07:51:04;;;;;;;4.95;1.90;;;;;;;;;;6282915;22;20033;-81
2023/03/06 07:53:31;;;;;;;4.07;1.40;;;;;;;;;;6313393;22;20030;-79
2023/03/06 07:55:57;;;;;;;3.60;1.30;;;;;;;;;;6312281;22;20134;-82
2023/03/06 07:58:24;;;;;;;3.33;1.13;;;;;;;;;;6312027;22;20020;-82
2023/03/06 08:00:50;;;;;;;3.83;1.38;;;;;;;;;;6313036;22;20023;-82
2023/03/06 08:03:17;;;;;;;5.18;1.75;;;;;;;;;;6309987;22;20008;-82
2023/03/06 08:05:44;;;;;;;4.28;1.38;;;;;;;;;;6313915;22;20024;-83
2023/03/06 08:08:10;;;;;;;4.57;1.20;;;;;;;;;;6313035;22;20043;-81
2023/03/06 08:10:37;;;;;;;3.47;1.40;;;;;;;;;;6311712;22;20046;-83
2023/03/06 08:13:03;;;;;;;5.88;1.27;;;;;;;;;;6311235;22;20016;-83
2023/03/06 08:15:30;;;;;;;4.28;1.20;;;;;;;;;;6309114;22;20027;-85
2023/03/06 08:17:56;;;;;;;3.42;1.40;;;;;;;;;;6308728;22;20011;-85
2023/03/06 08:20:22;;;;;;;2.97;1.00;;;;;;;;;;6311619;22;20054;-82
2023/03/06 08:22:49;;;;;;;3.75;1.27;;;;;;;;;;6314395;22;20007;-82
2023/03/06 08:25:15;;;;;;;4.35;1.30;;;;;;;;;;6313602;22;20024;-85
2023/03/06 08:27:42;;;;;;;2.45;0.70;;;;;;;;;;6314361;22;20925;-80
2023/03/06 08:30:08;;;;;;;3.58;0.90;;;;;;;;;;6315034;22;20012;-81
2023/03/06 08:32:35;;;;;;;2.45;0.90;;;;;;;;;;6313908;22;20059;-84
2023/03/06 08:35:03;;;;;;;4.65;1.00;;;;;;;;;;6286852;22;20043;-82
2023/03/06 08:37:29;;;;;;;3.25;0.90;;;;;;;;;;6314338;22;20035;-84
2023/03/06 08:39:56;;;;;;;2.67;0.90;;;;;;;;;;6316144;22;20016;-83
2023/03/06 08:42:22;;;;;;;3.20;0.90;;;;;;;;;;6314382;22;20012;-81
2023/03/06 08:44:49;;;;;;;2.78;1.05;;;;;;;;;;6315193;22;20028;-81
2023/03/06 08:47:15;;;;;;;2.58;0.75;;;;;;;;;;6314802;22;20030;-83
2023/03/06 08:49:42;;;;;;;4.18;1.10;;;;;;;;;;6316250;22;20089;-86
2023/03/06 08:52:08;;;;;;;2.92;0.80;;;;;;;;;;6314573;22;20047;-83
2023/03/06 08:54:35;;;;;;;2.50;0.90;;;;;;;;;;6313017;22;20034;-84
2023/03/06 08:57:01;;;;;;;2.70;0.85;;;;;;;;;;6286158;22;20039;-81
2023/03/06 08:59:28;;;;;;;3.40;0.70;;;;;;;;;;6316221;22;21036;-81
2023/03/06 09:01:54;;;;;;;3.03;0.80;;;;;;;;;;6314321;22;20059;-86
2023/03/06 09:04:21;;;;;;;4.15;1.05;;;;;;;;;;6311109;22;20055;-84
2023/03/06 09:06:47;;;;;;;2.50;0.80;;;;;;;;;;6312650;22;20921;-83
2023/03/06 09:09:14;;;;;;;1.80;0.70;;;;;;;;;;6306454;22;20008;-83
2023/03/06 09:11:40;;;;;;;3.30;0.80;;;;;;;;;;6310749;22;20046;-83
2023/03/06 09:14:06;;;;;;;2.28;0.80;;;;;;;;;;6306759;22;20026;-84
2023/03/06 09:16:33;;;;;;;2.83;0.80;;;;;;;;;;6282743;22;20019;-82
2023/03/06 09:18:59;;;;;;;2.40;0.90;;;;;;;;;;6274207;22;20090;-85
2023/03/06 09:21:27;;;;;;;1.75;0.60;;;;;;;;;;6304303;22;20020;-82
2023/03/06 09:23:53;;;;;;;2.75;0.85;;;;;;;;;;6275694;22;20067;-82
2023/03/06 09:26:20;;;;;;;2.17;0.70;;;;;;;;;;6302745;22;20060;-84
2023/03/06 09:28:46;;;;;;;1.90;0.73;;;;;;;;;;6308790;22;20012;-82
2023/03/06 09:31:14;;;;;;;1.75;0.60;;;;;;;;;;6280525;22;20027;-82
2023/03/06 09:33:41;;;;;;;2.95;0.73;;;;;;;;;;6306415;22;20030;-84
2023/03/06 09:36:09;;;;;;;3.83;0.60;;;;;;;;;;6309317;22;20020;-82
2023/03/06 09:38:35;;;;;;;3.72;0.70;;;;;;;;;;6311294;22;20055;-81
2023/03/06 09:41:21;;;;;;;2.72;0.60;;;;;;;;;;6311731;22;20051;-82
2023/03/06 09:43:49;;;;;;;4.05;0.70;;;;;;;;;;6310200;22;20027;-84
2023/03/06 09:46:29;;;;;;;2.40;0.80;;;;;;;;;;6312966;22;20035;-83
2023/03/06 09:48:56;;;;;;;;;;;;;;;;;;6315183;22;20110;-85
2023/03/06 09:51:26;;;;;;;2.38;0.50;;;;;;;;;;6313258;22;43780;-81
2023/03/06 09:53:52;;;;;;;2.03;0.60;;;;;;;;;;6314029;22;20039;-82
2023/03/06 09:56:20;;;;;;;2.83;0.70;;;;;;;;;;6314971;22;20022;-83
2023/03/06 09:58:59;;;;;;;1.60;0.60;;;;;;;;;;6315247;22;20028;-84
2023/03/06 10:01:30;;;;;;;2.15;0.90;;;;;;;;;;6311785;22;20019;-84
2023/03/06 10:03:59;;;;;;;2.92;0.68;;;;;;;;;;6282115;22;20019;-84
2023/03/06 10:06:30;;;;;;;2.08;0.50;;;;;;;;;;6307431;22;20066;-88
2023/03/06 10:08:59;;;;;;;2.22;0.80;;;;;;;;;;6310056;22;20081;-86
2023/03/06 10:11:44;;;;;;;2.88;0.63;;;;;;;;;;6282188;22;20026;-80
2023/03/06 10:14:29;;;;;;;3.88;0.68;;;;;;;;;;6301348;22;20051;-83
2023/03/06 10:16:57;;;;;;;2.40;0.65;;;;;;;;;;6300866;22;20035;-81
2023/03/06 10:19:30;;;;;;;1.40;0.50;;;;;;;;;;6309293;22;20054;-84
2023/03/06 10:21:59;;;;;;;2.17;0.63;;;;;;;;;;6309346;22;20095;-83
2023/03/06 10:24:37;;;;;;;1.50;0.40;;;;;;;;;;6310414;22;20102;-85
2023/03/06 10:27:20;;;;;;;0.70;0.40;;;;;;;;;;6310049;22;20372;-83
2023/03/06 10:29:52;;;;;;;1.55;0.40;;;;;;;;;;6311691;22;20022;-85
2023/03/06 10:32:36;;;;;;;1.25;0.40;;;;;;;;;;6312412;22;20027;-83
2023/03/06 10:35:16;;;;;;;2.08;0.40;;;;;;;;;;6311630;22;20032;-81
2023/03/06 10:37:42;;;;;;;2.47;0.50;;;;;;;;;;6312497;22;20054;-82
2023/03/06 10:40:17;;;;;;;2.10;0.50;;;;;;;;;;6309601;22;20023;-82
2023/03/06 10:42:43;;;;;;;2.00;0.73;;;;;;;;;;6283700;22;20100;-82
2023/03/06 10:45:11;;;;;;;1.55;0.55;;;;;;;;;;6283314;22;20110;-83
2023/03/06 10:47:39;;;;;;;2.03;0.50;;;;;;;;;;6310420;22;20022;-86
2023/03/06 10:50:35;;;;;;;3.60;0.70;;;;;;;;;;6312324;22;20015;-83
2023/03/06 10:53:05;;;;;;;1.00;0.50;;;;;;;;;;6296114;22;20122;-81
2023/03/06 10:55:33;;;;;;;2.28;0.50;;;;;;;;;;6308391;22;20635;-82
2023/03/06 10:58:20;;;;;;;1.88;0.60;;;;;;;;;;6306753;22;20008;-82
2023/03/06 11:00:58;;;;;;;2.15;0.60;;;;;;;;;;6306437;22;20725;-84
2023/03/06 11:03:24;;;;;;;2.80;0.50;;;;;;;;;;6307331;22;20027;-81
2023/03/06 11:06:09;;;;;;;2.47;0.47;;;;;;;;;;6310491;22;20181;-82
2023/03/06 11:08:39;;;;;;;1.38;0.50;;;;;;;;;;6308580;22;20110;-81
2023/03/06 11:11:07;;;;;;;2.20;0.40;;;;;;;;;;6311581;22;20031;-84
2023/03/06 11:13:36;;;;;;;0.63;0.38;;;;;;;;;;6309038;22;20067;-84
2023/03/06 11:16:15;;;;;;;1.77;0.40;;;;;;;;;;6306150;22;20738;-85
2023/03/06 11:18:53;;;;;;;1.52;0.55;;;;;;;;;;6300622;22;20039;-81
2023/03/06 11:21:33;;;;;;;1.00;0.40;;;;;;;;;;6308001;22;20012;-80
2023/03/06 11:24:01;;;;;;;0.60;0.30;;;;;;;;;;6315490;22;20519;-80
2023/03/06 11:26:36;;;;;;;1.50;0.40;;;;;;;;;;6312938;22;20016;-85
2023/03/06 11:29:05;;;;;;;1.80;0.60;;;;;;;;;;6311700;22;20508;-85
2023/03/06 11:31:38;;;;;;;1.17;0.40;;;;;;;;;;6315906;22;20657;-80
2023/03/06 11:34:10;;;;;;;3.70;0.70;;;;;;;;;;6316539;22;20027;-84
2023/03/06 11:36:46;;;;;;;2.00;0.70;;;;;;;;;;6287081;22;20099;-83
2023/03/06 11:39:22;;;;;;;1.85;0.60;;;;;;;;;;6314625;22;20459;-84
2023/03/06 11:41:52;;;;;;;2.38;0.70;;;;;;;;;;6290532;22;20027;-82
2023/03/06 11:44:24;;;;;;;2.40;0.70;;;;;;;;;;6311516;22;20039;-82
2023/03/06 11:47:09;;;;;;;4.65;0.90;;;;;;;;;;6310662;22;20016;-82
2023/03/06 11:49:42;;;;;;;2.88;0.80;;;;;;;;;;6285268;22;20020;-82
2023/03/06 11:52:13;;;;;;;3.08;1.00;;;;;;;;;;6310451;22;20027;-84
2023/03/06 11:54:40;;;;;;;2.92;0.90;;;;;;;;;;6311506;22;20567;-82
2023/03/06 11:57:13;;;;;;;3.92;0.93;;;;;;;;;;6312228;22;20127;-83
2023/03/06 11:59:49;;;;;;;2.83;0.85;;;;;;;;;;6311477;22;20107;-83
2023/03/06 12:02:15;;;;;;;4.43;0.90;;;;;;;;;;6315174;22;20024;-82
2023/03/06 12:04:51;;;;;;;2.25;0.80;;;;;;;;;;6312441;22;20063;-84
2023/03/06 12:07:24;;;;;;;4.43;1.20;;;;;;;;;;6312929;22;20027;-83
2023/03/06 12:09:56;;;;;;;3.05;1.05;;;;;;;;;;6311344;22;20853;-81
2023/03/06 12:12:25;;;;;;;3.60;1.05;;;;;;;;;;6311006;22;20027;-83
2023/03/06 12:15:04;;;;;;;3.95;1.25;;;;;;;;;;6309894;22;20031;-80
2023/03/06 12:17:53;;;;;;;3.03;1.02;;;;;;;;;;6309263;22;20063;-82
2023/03/06 12:20:26;;;;;;;3.20;1.15;;;;;;;;;;6282866;22;20439;-81
2023/03/06 12:22:55;;;;;;;4.05;1.20;;;;;;;;;;6281992;22;20104;-81
2023/03/06 12:25:49;;;;;;;4.22;1.30;;;;;;;;;;6311629;22;20020;-83
2023/03/06 12:28:15;;;;;;;3.70;1.15;;;;;;;;;;6311299;22;20083;-81
2023/03/06 12:30:41;;;;;;;6.35;1.40;;;;;;;;;;6312095;22;20072;-84
2023/03/06 12:33:08;;;;;;;3.78;1.58;;;;;;;;;;6309499;22;20023;-83
2023/03/06 12:35:40;;;;;;;5.53;1.30;;;;;;;;;;6311734;22;20027;-82
2023/03/06 12:38:29;;;;;;;3.83;1.30;;;;;;;;;;6284145;22;20036;-81
2023/03/06 12:41:14;;;;;;;7.22;1.40;;;;;;;;;;6313441;22;20111;-83
2023/03/06 12:43:58;;;;;;;5.65;1.50;;;;;;;;;;6309446;22;20028;-82
2023/03/06 12:46:26;;;;;;;5.93;1.92;;;;;;;;;;6311325;22;20059;-81
2023/03/06 12:48:58;;;;;;;4.82;1.40;;;;;;;;;;6307032;22;20028;-79
2023/03/06 12:51:25;;;;;;;3.63;1.50;;;;;;;;;;6311314;22;20277;-82
2023/03/06 12:53:52;;;;;;;5.97;1.65;;;;;;;;;;6310714;22;20024;-80
2023/03/06 12:56:20;;;;;;;4.85;1.58;;;;;;;;;;6311146;22;20071;-83
2023/03/06 12:58:52;;;;;;;4.65;1.60;;;;;;;;;;6283860;22;20079;-81
2023/03/06 13:01:37;;;;;;;6.13;2.42;;;;;;;;;;6309187;22;20241;-82
2023/03/06 13:04:22;;;;;;;6.63;2.10;;;;;;;;;;6310442;22;20320;-83
2023/03/06 13:07:07;;;;;;;4.32;2.10;;;;;;;;;;6309536;22;20109;-81
2023/03/06 13:09:52;;;;;;;6.38;2.53;;;;;;;;;;6305659;22;20065;-83
2023/03/06 13:12:19;;;;;;;5.10;2.40;;;;;;;;;;6305899;22;20098;-81
2023/03/06 13:14:45;;;;;;;8.43;2.83;;;;;;;;;;6304151;22;20034;-84
2023/03/06 13:17:19;;;;;;;6.45;2.35;;;;;;;;;;6307067;22;20038;-82
2023/03/06 13:19:46;;;;;;;5.90;2.97;;;;;;;;;;6306497;22;20024;-84
2023/03/06 13:22:26;;;;;;;8.15;3.28;;;;;;;;;;6303295;22;20539;-83
2023/03/06 13:25:25;;;;;;;6.17;2.87;;;;;;;;;;6278894;22;20089;-83
2023/03/06 13:27:51;;;;;;;9.05;2.83;;;;;;;;;;6270020;22;20067;-81
2023/03/06 13:30:41;;;;;;;8.95;3.35;;;;;;;;;;6305002;22;20047;-81
2023/03/06 13:33:23;;;;;;;7.93;3.72;;;;;;;;;;6295217;22;20024;-81
2023/03/06 13:35:51;;;;;;;11.50;4.10;;;;;;;;;;6280903;22;20030;-82
2023/03/06 13:38:32;;;;;;;7.75;4.43;;;;;;;;;;6310886;22;20498;-81
2023/03/06 13:41:17;;;;;;;9.80;4.78;;;;;;;;;;6285897;22;20047;-82
2023/03/06 13:43:44;;;;;;;8.95;4.70;;;;;;;;;;6281862;22;20027;-83
2023/03/06 13:46:23;;;;;;;9.10;5.15;;;;;;;;;;6311929;22;20101;-81
2023/03/06 13:49:03;;;;;;;9.32;5.10;;;;;;;;;;6311254;22;20097;-83
2023/03/06 13:51:34;;;;;;;11.00;5.47;;;;;;;;;;6311695;22;20028;-81
2023/03/06 13:54:00;;;;;;;;;;;;;;;;;;6303941;22;20019;-82
2023/03/06 13:56:41;;;;;;;10.70;5.72;;;;;;;;;;6303559;22;43604;-82
2023/03/06 13:59:14;;;;;;;15.02;6.30;;;;;;;;;;6306210;22;20735;-81
2023/03/06 14:01:59;;;;;;;9.93;6.00;;;;;;;;;;6307030;22;20842;-82
2023/03/06 14:04:26;;;;;;;11.93;6.90;;;;;;;;;;6305928;22;20030;-82
2023/03/06 14:07:03;;;;;;;12.68;6.78;;;;;;;;;;6308170;22;20019;-81
2023/03/06 14:09:34;;;;;;;10.40;5.95;;;;;;;;;;6306504;22;20023;-82
2023/03/06 14:12:06;;;;;;;12.25;6.65;;;;;;;;;;6280044;22;20020;-82
2023/03/06 14:14:42;;;;;;;11.57;5.85;;;;;;;;;;6305402;22;20008;-82
2023/03/06 14:17:28;;;;;;;11.93;5.70;;;;;;;;;;6282782;22;20028;-83
2023/03/06 14:19:56;;;;;;;10.75;5.68;;;;;;;;;;6280158;22;20028;-80
2023/03/06 14:22:23;;;;;;;12.00;6.43;;;;;;;;;;6307269;22;20270;-81
2023/03/06 14:24:52;;;;;;;10.75;5.60;;;;;;;;;;6306354;22;20026;-82
2023/03/06 14:27:19;;;;;;;9.23;5.38;;;;;;;;;;6308095;22;20024;-82
2023/03/06 14:29:47;;;;;;;9.18;5.70;;;;;;;;;;6280578;22;20028;-83
2023/03/06 14:32:20;;;;;;;11.95;5.32;;;;;;;;;;6307100;22;20468;-79
2023/03/06 14:34:47;;;;;;;16.17;4.90;;;;;;;;;;6309788;22;20035;-83
2023/03/06 14:37:21;;;;;;;8.48;3.63;;;;;;;;;;6318341;22;20031;-83
2023/03/06 14:39:47;;;;;;;7.13;3.80;;;;;;;;;;6286329;22;20016;-81
2023/03/06 14:42:22;;;;;;;9.38;4.00;;;;;;;;;;6318523;22;20019;-82
2023/03/06 14:45:09;;;;;;;11.18;5.00;;;;;;;;;;6310867;22;20039;-84
2023/03/06 14:47:36;;;;;;;7.63;4.38;;;;;;;;;;6305118;22;20036;-82